createdAt,value
2022-12-23T00:01:48.850Z,17.8
2022-12-23T00:22:09.843Z,17.7
2022-12-23T00:42:10.757Z,17.6
2022-12-23T01:01:48.540Z,17.5
2022-12-23T01:21:47.961Z,17.4
2022-12-23T01:42:09.772Z,17.4
2022-12-23T02:02:11.000Z,17.3
2022-12-23T02:21:47.995Z,17.3
2022-12-23T02:41:47.544Z,17.2
2022-12-23T03:02:10.045Z,17.1
2022-12-23T03:22:09.447Z,17.1
2022-12-23T03:41:47.994Z,17
2022-12-23T04:02:09.897Z,17
2022-12-23T04:22:10.143Z,16.9
2022-12-23T04:41:47.241Z,16.9
2022-12-23T05:22:32.339Z,17.1
2022-12-23T05:41:47.359Z,17.3
2022-12-23T06:01:48.644Z,17.3
2022-12-23T06:22:09.870Z,17.5
2022-12-23T06:42:09.468Z,17.6
2022-12-23T07:01:48.117Z,17.6
2022-12-23T07:21:47.316Z,17.7
2022-12-23T07:42:34.218Z,17.8
2022-12-23T08:01:47.625Z,17.9
2022-12-23T08:21:48.050Z,18
2022-12-23T08:41:48.762Z,18.1
2022-12-23T09:01:47.892Z,16.8
2022-12-23T09:21:47.975Z,18.1
2022-12-23T09:42:10.901Z,17.6
2022-12-23T10:01:47.365Z,18.3
2022-12-23T10:22:09.527Z,18.3
2022-12-23T10:41:47.944Z,18.4
2022-12-23T11:02:11.472Z,18.4
2022-12-23T11:21:47.493Z,18.5
2022-12-23T11:41:48.162Z,18.5
2022-12-23T12:01:48.269Z,18.5
2022-12-23T12:21:47.852Z,18.6
2022-12-23T12:41:49.056Z,18.6
2022-12-23T13:01:48.135Z,18.6
2022-12-23T13:21:48.177Z,18.7
2022-12-23T13:41:48.902Z,18.7
2022-12-23T14:01:47.614Z,18.6
2022-12-23T14:22:08.893Z,18.7
2022-12-23T14:41:48.283Z,18.7
2022-12-23T15:01:47.824Z,18.7
2022-12-23T15:22:19.771Z,18.7
2022-12-23T15:42:10.229Z,18.7
2022-12-23T16:02:24.838Z,18.7
2022-12-23T16:21:48.307Z,18.7
2022-12-23T16:41:48.058Z,18.8
2022-12-23T17:01:47.415Z,18.9
2022-12-23T17:22:10.609Z,19
2022-12-23T17:41:48.271Z,19.2
2022-12-23T18:01:49.027Z,19.5
2022-12-23T18:21:48.133Z,19.7
2022-12-23T18:41:48.049Z,19.7
2022-12-23T19:02:09.781Z,19.8
2022-12-23T19:22:10.473Z,19.9
2022-12-23T19:41:47.316Z,20.1
2022-12-23T20:01:48.540Z,20.2
2022-12-23T20:22:09.997Z,20.1
2022-12-23T20:41:47.985Z,20.1
2022-12-23T21:02:10.155Z,20.1
2022-12-23T21:22:09.659Z,20.3
2022-12-23T21:42:31.786Z,20.2
2022-12-23T22:01:48.085Z,20.2
2022-12-23T22:22:19.435Z,20.2
2022-12-23T22:42:09.832Z,20.2
2022-12-23T23:02:08.174Z,20
2022-12-23T23:21:48.074Z,19.9
2022-12-23T23:41:48.767Z,19.8
